sensor_id;sensor_type;location;lat;lon;timestamp;temperature;humidity
4406;DHT22;2216;53.806;11.598;2024-01-30T00:01:52;4.20;85.00
4406;DHT22;2216;53.806;11.598;2024-01-30T00:04:18;4.20;85.00
4406;DHT22;2216;53.806;11.598;2024-01-30T00:06:44;4.10;85.00
4406;DHT22;2216;53.806;11.598;2024-01-30T00:09:10;4.10;85.00
4406;DHT22;2216;53.806;11.598;2024-01-30T00:11:37;4.00;85.00
4406;DHT22;2216;53.806;11.598;2024-01-30T00:14:04;4.00;85.00
4406;DHT22;2216;53.806;11.598;2024-01-30T00:16:30;3.90;85.00
4406;DHT22;2216;53.806;11.598;2024-01-30T00:18:56;3.80;85.00
4406;DHT22;2216;53.806;11.598;2024-01-30T00:21:22;3.80;85.00
4406;DHT22;2216;53.806;11.598;2024-01-30T00:23:48;3.80;85.00
4406;DHT22;2216;53.806;11.598;2024-01-30T00:26:13;3.70;85.00
4406;DHT22;2216;53.806;11.598;2024-01-30T00:28:43;3.70;85.70
4406;DHT22;2216;53.806;11.598;2024-01-30T00:31:09;3.60;84.90
4406;DHT22;2216;53.806;11.598;2024-01-30T00:33:38;3.60;85.00
4406;DHT22;2216;53.806;11.598;2024-01-30T00:36:05;3.50;85.00
4406;DHT22;2216;53.806;11.598;2024-01-30T00:38:32;3.50;85.10
4406;DHT22;2216;53.806;11.598;2024-01-30T00:40:58;3.40;85.10
4406;DHT22;2216;53.806;11.598;2024-01-30T00:43:23;3.40;85.10
4406;DHT22;2216;53.806;11.598;2024-01-30T00:45:50;3.30;85.10
4406;DHT22;2216;53.806;11.598;2024-01-30T00:48:18;3.30;85.20
4406;DHT22;2216;53.806;11.598;2024-01-30T00:50:44;3.30;85.20
4406;DHT22;2216;53.806;11.598;2024-01-30T00:53:10;3.30;85.20
4406;DHT22;2216;53.806;11.598;2024-01-30T00:55:35;3.20;85.10
4406;DHT22;2216;53.806;11.598;2024-01-30T00:58:01;3.20;85.20
4406;DHT22;2216;53.806;11.598;2024-01-30T01:00:27;3.20;85.20
4406;DHT22;2216;53.806;11.598;2024-01-30T01:02:55;3.10;85.20
4406;DHT22;2216;53.806;11.598;2024-01-30T01:05:21;3.10;85.20
4406;DHT22;2216;53.806;11.598;2024-01-30T01:07:47;3.10;85.30
4406;DHT22;2216;53.806;11.598;2024-01-30T01:10:14;3.00;85.20
4406;DHT22;2216;53.806;11.598;2024-01-30T01:12:41;3.00;85.40
4406;DHT22;2216;53.806;11.598;2024-01-30T01:15:07;3.10;85.50
4406;DHT22;2216;53.806;11.598;2024-01-30T01:17:36;3.00;85.50
4406;DHT22;2216;53.806;11.598;2024-01-30T01:20:03;3.00;85.70
4406;DHT22;2216;53.806;11.598;2024-01-30T01:22:31;3.00;85.60
4406;DHT22;2216;53.806;11.598;2024-01-30T01:24:56;3.00;85.60
4406;DHT22;2216;53.806;11.598;2024-01-30T01:27:22;3.00;85.60
4406;DHT22;2216;53.806;11.598;2024-01-30T01:29:48;3.00;85.50
4406;DHT22;2216;53.806;11.598;2024-01-30T01:32:13;2.90;85.40
4406;DHT22;2216;53.806;11.598;2024-01-30T01:34:39;2.90;85.30
4406;DHT22;2216;53.806;11.598;2024-01-30T01:37:05;2.80;85.90
4406;DHT22;2216;53.806;11.598;2024-01-30T01:39:31;2.80;85.20
4406;DHT22;2216;53.806;11.598;2024-01-30T01:41:56;2.80;85.20
4406;DHT22;2216;53.806;11.598;2024-01-30T01:44:22;2.80;85.20
4406;DHT22;2216;53.806;11.598;2024-01-30T01:46:48;2.70;85.20
4406;DHT22;2216;53.806;11.598;2024-01-30T01:49:14;2.70;85.20
4406;DHT22;2216;53.806;11.598;2024-01-30T01:51:41;2.70;85.30
4406;DHT22;2216;53.806;11.598;2024-01-30T01:54:08;2.60;85.20
4406;DHT22;2216;53.806;11.598;2024-01-30T01:56:34;2.60;85.30
4406;DHT22;2216;53.806;11.598;2024-01-30T01:59:05;2.60;85.30
4406;DHT22;2216;53.806;11.598;2024-01-30T02:01:33;2.60;85.40
4406;DHT22;2216;53.806;11.598;2024-01-30T02:04:00;2.60;85.40
4406;DHT22;2216;53.806;11.598;2024-01-30T02:06:27;2.60;85.50
4406;DHT22;2216;53.806;11.598;2024-01-30T02:08:53;2.70;85.70
4406;DHT22;2216;53.806;11.598;2024-01-30T02:11:20;2.60;85.70
4406;DHT22;2216;53.806;11.598;2024-01-30T02:13:46;2.60;85.90
4406;DHT22;2216;53.806;11.598;2024-01-30T02:16:12;2.60;85.90
4406;DHT22;2216;53.806;11.598;2024-01-30T02:18:37;2.70;86.00
4406;DHT22;2216;53.806;11.598;2024-01-30T02:21:08;2.70;86.10
4406;DHT22;2216;53.806;11.598;2024-01-30T02:23:34;2.70;86.10
4406;DHT22;2216;53.806;11.598;2024-01-30T02:26:00;2.80;86.20
4406;DHT22;2216;53.806;11.598;2024-01-30T02:28:26;2.70;86.20
4406;DHT22;2216;53.806;11.598;2024-01-30T02:30:53;2.80;86.30
4406;DHT22;2216;53.806;11.598;2024-01-30T02:33:19;2.80;86.30
4406;DHT22;2216;53.806;11.598;2024-01-30T02:35:44;2.80;86.30
4406;DHT22;2216;53.806;11.598;2024-01-30T02:38:10;2.80;86.40
4406;DHT22;2216;53.806;11.598;2024-01-30T02:40:36;2.80;86.40
4406;DHT22;2216;53.806;11.598;2024-01-30T02:43:03;2.90;86.50
4406;DHT22;2216;53.806;11.598;2024-01-30T02:45:29;2.90;86.60
4406;DHT22;2216;53.806;11.598;2024-01-30T02:47:55;3.00;86.60
4406;DHT22;2216;53.806;11.598;2024-01-30T02:50:20;3.10;86.70
4406;DHT22;2216;53.806;11.598;2024-01-30T02:52:46;3.00;86.60
4406;DHT22;2216;53.806;11.598;2024-01-30T02:55:12;3.10;86.70
4406;DHT22;2216;53.806;11.598;2024-01-30T02:57:38;3.10;86.60
4406;DHT22;2216;53.806;11.598;2024-01-30T03:00:05;3.10;86.60
4406;DHT22;2216;53.806;11.598;2024-01-30T03:02:35;3.20;86.60
4406;DHT22;2216;53.806;11.598;2024-01-30T03:05:01;3.20;86.50
4406;DHT22;2216;53.806;11.598;2024-01-30T03:07:29;3.20;86.50
4406;DHT22;2216;53.806;11.598;2024-01-30T03:09:55;3.20;86.40
4406;DHT22;2216;53.806;11.598;2024-01-30T03:12:21;3.20;86.30
4406;DHT22;2216;53.806;11.598;2024-01-30T03:14:47;3.30;86.30
4406;DHT22;2216;53.806;11.598;2024-01-30T03:17:13;3.20;86.10
4406;DHT22;2216;53.806;11.598;2024-01-30T03:19:39;3.20;86.10
4406;DHT22;2216;53.806;11.598;2024-01-30T03:22:05;3.20;86.00
4406;DHT22;2216;53.806;11.598;2024-01-30T03:24:30;3.20;86.00
4406;DHT22;2216;53.806;11.598;2024-01-30T03:26:56;3.20;86.00
4406;DHT22;2216;53.806;11.598;2024-01-30T03:29:22;3.20;86.00
4406;DHT22;2216;53.806;11.598;2024-01-30T03:31:47;3.20;86.00
4406;DHT22;2216;53.806;11.598;2024-01-30T03:34:13;3.20;86.00
4406;DHT22;2216;53.806;11.598;2024-01-30T03:36:39;3.10;86.00
4406;DHT22;2216;53.806;11.598;2024-01-30T03:39:05;3.10;86.00
4406;DHT22;2216;53.806;11.598;2024-01-30T03:41:31;3.10;86.00
4406;DHT22;2216;53.806;11.598;2024-01-30T03:43:57;3.10;86.00
4406;DHT22;2216;53.806;11.598;2024-01-30T03:46:23;3.10;86.00
4406;DHT22;2216;53.806;11.598;2024-01-30T03:48:49;3.10;86.00
4406;DHT22;2216;53.806;11.598;2024-01-30T03:51:15;3.10;86.00
4406;DHT22;2216;53.806;11.598;2024-01-30T03:53:42;3.10;86.00
4406;DHT22;2216;53.806;11.598;2024-01-30T03:56:08;3.10;85.90
4406;DHT22;2216;53.806;11.598;2024-01-30T03:58:34;3.10;85.90
4406;DHT22;2216;53.806;11.598;2024-01-30T04:01:00;3.10;85.90
4406;DHT22;2216;53.806;11.598;2024-01-30T04:03:26;3.10;85.90
4406;DHT22;2216;53.806;11.598;2024-01-30T04:05:52;3.00;85.80
4406;DHT22;2216;53.806;11.598;2024-01-30T04:08:18;3.00;85.80
4406;DHT22;2216;53.806;11.598;2024-01-30T04:10:45;3.00;85.70
4406;DHT22;2216;53.806;11.598;2024-01-30T04:13:11;2.90;85.70
4406;DHT22;2216;53.806;11.598;2024-01-30T04:15:37;2.90;85.70
4406;DHT22;2216;53.806;11.598;2024-01-30T04:18:03;3.10;85.80
4406;DHT22;2216;53.806;11.598;2024-01-30T04:20:29;2.90;85.70
4406;DHT22;2216;53.806;11.598;2024-01-30T04:22:55;3.00;85.80
4406;DHT22;2216;53.806;11.598;2024-01-30T04:25:21;2.80;85.60
4406;DHT22;2216;53.806;11.598;2024-01-30T04:27:47;2.80;85.70
4406;DHT22;2216;53.806;11.598;2024-01-30T04:30:13;2.90;85.70
4406;DHT22;2216;53.806;11.598;2024-01-30T04:32:39;2.80;85.70
4406;DHT22;2216;53.806;11.598;2024-01-30T04:35:05;2.80;85.70
4406;DHT22;2216;53.806;11.598;2024-01-30T04:37:31;2.80;85.80
4406;DHT22;2216;53.806;11.598;2024-01-30T04:39:57;2.80;85.80
4406;DHT22;2216;53.806;11.598;2024-01-30T04:42:23;2.80;85.90
4406;DHT22;2216;53.806;11.598;2024-01-30T04:44:49;2.80;86.00
4406;DHT22;2216;53.806;11.598;2024-01-30T04:47:15;2.80;86.80
4406;DHT22;2216;53.806;11.598;2024-01-30T04:49:41;2.80;86.20
4406;DHT22;2216;53.806;11.598;2024-01-30T04:52:08;2.80;86.30
4406;DHT22;2216;53.806;11.598;2024-01-30T04:54:34;2.80;86.50
4406;DHT22;2216;53.806;11.598;2024-01-30T04:57:01;2.90;86.50
4406;DHT22;2216;53.806;11.598;2024-01-30T04:59:27;2.90;86.60
4406;DHT22;2216;53.806;11.598;2024-01-30T05:01:53;2.90;86.60
4406;DHT22;2216;53.806;11.598;2024-01-30T05:04:19;2.90;86.60
4406;DHT22;2216;53.806;11.598;2024-01-30T05:06:45;3.10;86.80
4406;DHT22;2216;53.806;11.598;2024-01-30T05:09:11;2.90;86.60
4406;DHT22;2216;53.806;11.598;2024-01-30T05:11:38;3.00;86.70
4406;DHT22;2216;53.806;11.598;2024-01-30T05:14:05;3.00;86.70
4406;DHT22;2216;53.806;11.598;2024-01-30T05:16:31;3.00;86.60
4406;DHT22;2216;53.806;11.598;2024-01-30T05:18:57;3.20;86.80
4406;DHT22;2216;53.806;11.598;2024-01-30T05:21:24;3.00;86.60
4406;DHT22;2216;53.806;11.598;2024-01-30T05:23:49;3.00;86.60
4406;DHT22;2216;53.806;11.598;2024-01-30T05:26:15;3.10;86.60
4406;DHT22;2216;53.806;11.598;2024-01-30T05:28:41;3.10;86.60
4406;DHT22;2216;53.806;11.598;2024-01-30T05:31:07;3.10;86.60
4406;DHT22;2216;53.806;11.598;2024-01-30T05:33:33;3.10;86.60
4406;DHT22;2216;53.806;11.598;2024-01-30T05:35:59;3.10;86.60
4406;DHT22;2216;53.806;11.598;2024-01-30T05:38:25;3.10;86.70
4406;DHT22;2216;53.806;11.598;2024-01-30T05:40:50;3.10;86.70
4406;DHT22;2216;53.806;11.598;2024-01-30T05:43:16;3.10;86.80
4406;DHT22;2216;53.806;11.598;2024-01-30T05:45:42;3.10;86.80
4406;DHT22;2216;53.806;11.598;2024-01-30T05:48:08;3.30;86.90
4406;DHT22;2216;53.806;11.598;2024-01-30T05:50:34;3.10;86.80
4406;DHT22;2216;53.806;11.598;2024-01-30T05:52:59;3.10;86.70
4406;DHT22;2216;53.806;11.598;2024-01-30T05:55:25;3.20;86.70
4406;DHT22;2216;53.806;11.598;2024-01-30T05:57:51;3.20;86.70
4406;DHT22;2216;53.806;11.598;2024-01-30T06:00:18;3.20;86.70
4406;DHT22;2216;53.806;11.598;2024-01-30T06:02:44;3.20;86.70
4406;DHT22;2216;53.806;11.598;2024-01-30T06:05:09;3.20;86.60
4406;DHT22;2216;53.806;11.598;2024-01-30T06:07:35;3.20;86.60
4406;DHT22;2216;53.806;11.598;2024-01-30T06:10:01;3.20;86.60
4406;DHT22;2216;53.806;11.598;2024-01-30T06:12:27;3.20;86.50
4406;DHT22;2216;53.806;11.598;2024-01-30T06:14:54;3.20;87.20
4406;DHT22;2216;53.806;11.598;2024-01-30T06:17:22;3.20;86.50
4406;DHT22;2216;53.806;11.598;2024-01-30T06:19:48;3.30;86.50
4406;DHT22;2216;53.806;11.598;2024-01-30T06:22:15;3.10;86.30
4406;DHT22;2216;53.806;11.598;2024-01-30T06:24:41;3.20;86.40
4406;DHT22;2216;53.806;11.598;2024-01-30T06:27:07;3.10;86.30
4406;DHT22;2216;53.806;11.598;2024-01-30T06:29:32;3.10;86.30
4406;DHT22;2216;53.806;11.598;2024-01-30T06:31:59;3.10;86.30
4406;DHT22;2216;53.806;11.598;2024-01-30T06:34:24;3.10;86.30
4406;DHT22;2216;53.806;11.598;2024-01-30T06:36:51;3.10;86.30
4406;DHT22;2216;53.806;11.598;2024-01-30T06:39:17;3.10;86.30
4406;DHT22;2216;53.806;11.598;2024-01-30T06:41:43;3.10;86.40
4406;DHT22;2216;53.806;11.598;2024-01-30T06:44:11;3.30;86.50
4406;DHT22;2216;53.806;11.598;2024-01-30T06:46:37;3.10;86.40
4406;DHT22;2216;53.806;11.598;2024-01-30T06:49:03;3.10;86.40
4406;DHT22;2216;53.806;11.598;2024-01-30T06:51:29;3.10;86.40
4406;DHT22;2216;53.806;11.598;2024-01-30T06:53:55;3.30;86.60
4406;DHT22;2216;53.806;11.598;2024-01-30T06:56:21;3.10;86.40
4406;DHT22;2216;53.806;11.598;2024-01-30T06:58:50;3.10;86.40
4406;DHT22;2216;53.806;11.598;2024-01-30T07:01:16;3.10;86.40
4406;DHT22;2216;53.806;11.598;2024-01-30T07:03:43;3.10;86.40
4406;DHT22;2216;53.806;11.598;2024-01-30T07:06:10;3.10;86.40
4406;DHT22;2216;53.806;11.598;2024-01-30T07:08:36;3.10;86.30
4406;DHT22;2216;53.806;11.598;2024-01-30T07:11:07;3.30;86.50
4406;DHT22;2216;53.806;11.598;2024-01-30T07:13:34;3.10;86.30
4406;DHT22;2216;53.806;11.598;2024-01-30T07:16:00;3.10;86.20
4406;DHT22;2216;53.806;11.598;2024-01-30T07:18:26;3.10;86.30
4406;DHT22;2216;53.806;11.598;2024-01-30T07:20:51;3.00;86.20
4406;DHT22;2216;53.806;11.598;2024-01-30T07:23:17;3.10;86.40
4406;DHT22;2216;53.806;11.598;2024-01-30T07:25:46;3.00;86.40
4406;DHT22;2216;53.806;11.598;2024-01-30T07:28:14;3.00;86.40
4406;DHT22;2216;53.806;11.598;2024-01-30T07:30:44;3.10;86.50
4406;DHT22;2216;53.806;11.598;2024-01-30T07:33:10;3.10;86.60
4406;DHT22;2216;53.806;11.598;2024-01-30T07:35:36;3.10;86.60
4406;DHT22;2216;53.806;11.598;2024-01-30T07:38:02;3.30;86.80
4406;DHT22;2216;53.806;11.598;2024-01-30T07:40:28;3.20;86.80
4406;DHT22;2216;53.806;11.598;2024-01-30T07:42:54;3.10;86.80
4406;DHT22;2216;53.806;11.598;2024-01-30T07:45:20;3.20;86.90
4406;DHT22;2216;53.806;11.598;2024-01-30T07:47:49;3.20;87.00
4406;DHT22;2216;53.806;11.598;2024-01-30T07:50:15;3.20;87.00
4406;DHT22;2216;53.806;11.598;2024-01-30T07:52:41;3.30;87.00
4406;DHT22;2216;53.806;11.598;2024-01-30T07:55:07;3.20;87.00
4406;DHT22;2216;53.806;11.598;2024-01-30T07:57:34;3.30;87.10
4406;DHT22;2216;53.806;11.598;2024-01-30T08:00:00;3.40;87.10
4406;DHT22;2216;53.806;11.598;2024-01-30T08:02:26;3.40;87.10
4406;DHT22;2216;53.806;11.598;2024-01-30T08:04:52;3.40;87.10
4406;DHT22;2216;53.806;11.598;2024-01-30T08:07:18;3.50;87.20
4406;DHT22;2216;53.806;11.598;2024-01-30T08:09:44;3.50;87.20
4406;DHT22;2216;53.806;11.598;2024-01-30T08:12:09;3.50;87.30
4406;DHT22;2216;53.806;11.598;2024-01-30T08:14:35;3.60;87.40
4406;DHT22;2216;53.806;11.598;2024-01-30T08:17:01;3.60;87.40
4406;DHT22;2216;53.806;11.598;2024-01-30T08:19:27;3.60;87.40
4406;DHT22;2216;53.806;11.598;2024-01-30T08:21:52;3.70;87.50
4406;DHT22;2216;53.806;11.598;2024-01-30T08:24:18;3.80;87.60
4406;DHT22;2216;53.806;11.598;2024-01-30T08:26:44;3.80;87.60
4406;DHT22;2216;53.806;11.598;2024-01-30T08:29:09;3.80;87.70
4406;DHT22;2216;53.806;11.598;2024-01-30T08:31:35;3.90;87.80
4406;DHT22;2216;53.806;11.598;2024-01-30T08:34:01;4.00;87.90
4406;DHT22;2216;53.806;11.598;2024-01-30T08:36:27;4.00;88.00
4406;DHT22;2216;53.806;11.598;2024-01-30T08:38:53;4.20;88.10
4406;DHT22;2216;53.806;11.598;2024-01-30T08:41:19;4.20;88.20
4406;DHT22;2216;53.806;11.598;2024-01-30T08:43:44;4.30;88.30
4406;DHT22;2216;53.806;11.598;2024-01-30T08:46:11;4.40;88.40
4406;DHT22;2216;53.806;11.598;2024-01-30T08:48:36;4.50;88.50
4406;DHT22;2216;53.806;11.598;2024-01-30T08:51:02;4.50;88.60
4406;DHT22;2216;53.806;11.598;2024-01-30T08:53:28;4.70;88.80
4406;DHT22;2216;53.806;11.598;2024-01-30T08:55:54;4.80;88.90
4406;DHT22;2216;53.806;11.598;2024-01-30T08:58:20;4.90;89.00
4406;DHT22;2216;53.806;11.598;2024-01-30T09:00:45;5.00;89.10
4406;DHT22;2216;53.806;11.598;2024-01-30T09:03:11;5.10;89.10
4406;DHT22;2216;53.806;11.598;2024-01-30T09:05:37;5.10;89.10
4406;DHT22;2216;53.806;11.598;2024-01-30T09:08:03;5.20;89.10
4406;DHT22;2216;53.806;11.598;2024-01-30T09:10:29;5.30;89.10
4406;DHT22;2216;53.806;11.598;2024-01-30T09:12:54;5.40;89.10
4406;DHT22;2216;53.806;11.598;2024-01-30T09:15:20;5.50;89.10
4406;DHT22;2216;53.806;11.598;2024-01-30T09:17:46;5.60;89.10
4406;DHT22;2216;53.806;11.598;2024-01-30T09:20:11;5.70;89.10
4406;DHT22;2216;53.806;11.598;2024-01-30T09:22:37;5.80;89.10
4406;DHT22;2216;53.806;11.598;2024-01-30T09:25:03;5.80;89.00
4406;DHT22;2216;53.806;11.598;2024-01-30T09:27:29;5.90;88.90
4406;DHT22;2216;53.806;11.598;2024-01-30T09:29:56;6.00;88.90
4406;DHT22;2216;53.806;11.598;2024-01-30T09:32:21;6.10;88.90
4406;DHT22;2216;53.806;11.598;2024-01-30T09:34:47;6.10;88.80
4406;DHT22;2216;53.806;11.598;2024-01-30T09:37:13;6.20;89.50
4406;DHT22;2216;53.806;11.598;2024-01-30T09:39:40;6.20;88.70
4406;DHT22;2216;53.806;11.598;2024-01-30T09:42:28;6.30;88.70
4406;DHT22;2216;53.806;11.598;2024-01-30T09:45:01;6.40;88.70
4406;DHT22;2216;53.806;11.598;2024-01-30T09:47:32;6.40;88.70
4406;DHT22;2216;53.806;11.598;2024-01-30T09:49:58;6.50;88.80
4406;DHT22;2216;53.806;11.598;2024-01-30T09:52:24;6.60;88.90
4406;DHT22;2216;53.806;11.598;2024-01-30T09:54:51;6.60;89.00
4406;DHT22;2216;53.806;11.598;2024-01-30T09:57:18;6.80;89.20
4406;DHT22;2216;53.806;11.598;2024-01-30T09:59:44;6.80;89.30
4406;DHT22;2216;53.806;11.598;2024-01-30T10:02:10;6.90;89.40
4406;DHT22;2216;53.806;11.598;2024-01-30T10:04:36;7.00;89.40
4406;DHT22;2216;53.806;11.598;2024-01-30T10:07:02;7.20;89.40
4406;DHT22;2216;53.806;11.598;2024-01-30T10:09:31;7.20;89.30
4406;DHT22;2216;53.806;11.598;2024-01-30T10:11:58;7.30;89.20
4406;DHT22;2216;53.806;11.598;2024-01-30T10:14:24;7.40;89.20
4406;DHT22;2216;53.806;11.598;2024-01-30T10:16:50;7.50;89.10
4406;DHT22;2216;53.806;11.598;2024-01-30T10:19:16;7.50;89.00
4406;DHT22;2216;53.806;11.598;2024-01-30T10:21:42;7.60;89.00
4406;DHT22;2216;53.806;11.598;2024-01-30T10:24:08;7.60;89.00
4406;DHT22;2216;53.806;11.598;2024-01-30T10:26:33;7.70;89.00
4406;DHT22;2216;53.806;11.598;2024-01-30T10:28:59;7.70;88.90
4406;DHT22;2216;53.806;11.598;2024-01-30T10:31:25;7.80;88.90
4406;DHT22;2216;53.806;11.598;2024-01-30T10:33:51;7.80;88.80
4406;DHT22;2216;53.806;11.598;2024-01-30T10:36:17;7.90;88.80
4406;DHT22;2216;53.806;11.598;2024-01-30T10:38:43;7.90;88.80
4406;DHT22;2216;53.806;11.598;2024-01-30T10:41:13;8.00;88.80
4406;DHT22;2216;53.806;11.598;2024-01-30T10:43:41;8.00;88.80
4406;DHT22;2216;53.806;11.598;2024-01-30T10:46:20;8.10;88.90
4406;DHT22;2216;53.806;11.598;2024-01-30T10:48:57;8.20;89.00
4406;DHT22;2216;53.806;11.598;2024-01-30T10:51:29;8.20;89.00
4406;DHT22;2216;53.806;11.598;2024-01-30T10:53:56;8.30;88.90
4406;DHT22;2216;53.806;11.598;2024-01-30T10:56:22;8.30;88.90
4406;DHT22;2216;53.806;11.598;2024-01-30T10:58:52;8.40;88.90
4406;DHT22;2216;53.806;11.598;2024-01-30T11:01:20;8.40;88.90
4406;DHT22;2216;53.806;11.598;2024-01-30T11:03:51;8.50;89.00
4406;DHT22;2216;53.806;11.598;2024-01-30T11:06:18;8.60;89.00
4406;DHT22;2216;53.806;11.598;2024-01-30T11:09:00;8.60;89.10
4406;DHT22;2216;53.806;11.598;2024-01-30T11:11:46;8.70;89.20
4406;DHT22;2216;53.806;11.598;2024-01-30T11:14:15;8.80;89.20
4406;DHT22;2216;53.806;11.598;2024-01-30T11:16:41;8.90;89.10
4406;DHT22;2216;53.806;11.598;2024-01-30T11:19:11;8.90;88.90
4406;DHT22;2216;53.806;11.598;2024-01-30T11:21:41;9.00;88.70
4406;DHT22;2216;53.806;11.598;2024-01-30T11:24:08;9.00;88.60
4406;DHT22;2216;53.806;11.598;2024-01-30T11:26:33;9.00;88.40
4406;DHT22;2216;53.806;11.598;2024-01-30T11:29:03;9.00;88.30
4406;DHT22;2216;53.806;11.598;2024-01-30T11:31:29;9.00;88.30
4406;DHT22;2216;53.806;11.598;2024-01-30T11:33:56;9.00;88.10
4406;DHT22;2216;53.806;11.598;2024-01-30T11:36:25;9.00;88.00
4406;DHT22;2216;53.806;11.598;2024-01-30T11:38:52;9.00;88.10
4406;DHT22;2216;53.806;11.598;2024-01-30T11:41:18;9.00;88.20
4406;DHT22;2216;53.806;11.598;2024-01-30T11:43:52;9.10;88.30
4406;DHT22;2216;53.806;11.598;2024-01-30T11:46:18;9.10;88.30
4406;DHT22;2216;53.806;11.598;2024-01-30T11:48:44;9.10;88.20
4406;DHT22;2216;53.806;11.598;2024-01-30T11:51:12;9.10;88.20
4406;DHT22;2216;53.806;11.598;2024-01-30T11:53:39;9.10;88.10
4406;DHT22;2216;53.806;11.598;2024-01-30T11:56:06;9.10;88.00
4406;DHT22;2216;53.806;11.598;2024-01-30T11:58:32;9.10;88.00
4406;DHT22;2216;53.806;11.598;2024-01-30T12:00:58;9.10;88.00
4406;DHT22;2216;53.806;11.598;2024-01-30T12:03:24;9.10;87.90
4406;DHT22;2216;53.806;11.598;2024-01-30T12:05:56;9.10;87.90
4406;DHT22;2216;53.806;11.598;2024-01-30T12:08:23;9.00;87.90
4406;DHT22;2216;53.806;11.598;2024-01-30T12:10:58;9.00;87.80
4406;DHT22;2216;53.806;11.598;2024-01-30T12:13:26;9.00;87.80
4406;DHT22;2216;53.806;11.598;2024-01-30T12:15:53;9.00;87.90
4406;DHT22;2216;53.806;11.598;2024-01-30T12:18:19;9.10;88.10
4406;DHT22;2216;53.806;11.598;2024-01-30T12:20:45;9.00;88.00
4406;DHT22;2216;53.806;11.598;2024-01-30T12:23:12;9.10;88.00
4406;DHT22;2216;53.806;11.598;2024-01-30T12:25:38;9.10;88.00
4406;DHT22;2216;53.806;11.598;2024-01-30T12:28:04;9.00;87.80
4406;DHT22;2216;53.806;11.598;2024-01-30T12:30:31;9.10;87.90
4406;DHT22;2216;53.806;11.598;2024-01-30T12:32:56;9.00;88.60
4406;DHT22;2216;53.806;11.598;2024-01-30T12:35:23;9.00;87.90
4406;DHT22;2216;53.806;11.598;2024-01-30T12:37:49;9.10;88.00
4406;DHT22;2216;53.806;11.598;2024-01-30T12:40:16;9.00;88.00
4406;DHT22;2216;53.806;11.598;2024-01-30T12:42:43;9.00;88.00
4406;DHT22;2216;53.806;11.598;2024-01-30T12:45:11;9.10;88.20
4406;DHT22;2216;53.806;11.598;2024-01-30T12:47:38;9.10;88.10
4406;DHT22;2216;53.806;11.598;2024-01-30T12:50:04;9.10;88.10
4406;DHT22;2216;53.806;11.598;2024-01-30T12:52:30;9.10;88.10
4406;DHT22;2216;53.806;11.598;2024-01-30T12:54:56;9.10;88.10
4406;DHT22;2216;53.806;11.598;2024-01-30T12:57:22;9.10;88.10
4406;DHT22;2216;53.806;11.598;2024-01-30T12:59:48;9.10;88.10
4406;DHT22;2216;53.806;11.598;2024-01-30T13:02:15;9.10;88.10
4406;DHT22;2216;53.806;11.598;2024-01-30T13:04:40;9.10;88.10
4406;DHT22;2216;53.806;11.598;2024-01-30T13:07:06;9.10;88.00
4406;DHT22;2216;53.806;11.598;2024-01-30T13:09:32;9.10;88.00
4406;DHT22;2216;53.806;11.598;2024-01-30T13:11:58;9.20;88.10
4406;DHT22;2216;53.806;11.598;2024-01-30T13:14:25;9.10;88.00
4406;DHT22;2216;53.806;11.598;2024-01-30T13:16:51;9.20;88.10
4406;DHT22;2216;53.806;11.598;2024-01-30T13:19:17;9.20;88.20
4406;DHT22;2216;53.806;11.598;2024-01-30T13:21:43;9.20;88.30
4406;DHT22;2216;53.806;11.598;2024-01-30T13:24:09;9.20;88.40
4406;DHT22;2216;53.806;11.598;2024-01-30T13:26:35;9.20;88.40
4406;DHT22;2216;53.806;11.598;2024-01-30T13:29:01;9.30;88.50
4406;DHT22;2216;53.806;11.598;2024-01-30T13:31:27;9.30;88.50
4406;DHT22;2216;53.806;11.598;2024-01-30T13:33:53;9.30;88.40
4406;DHT22;2216;53.806;11.598;2024-01-30T13:36:20;9.30;88.40
4406;DHT22;2216;53.806;11.598;2024-01-30T13:38:46;9.30;88.30
4406;DHT22;2216;53.806;11.598;2024-01-30T13:41:12;9.30;88.20
4406;DHT22;2216;53.806;11.598;2024-01-30T13:43:37;9.30;88.20
4406;DHT22;2216;53.806;11.598;2024-01-30T13:46:03;9.40;88.20
4406;DHT22;2216;53.806;11.598;2024-01-30T13:48:30;9.30;88.10
4406;DHT22;2216;53.806;11.598;2024-01-30T13:50:56;9.40;88.20
4406;DHT22;2216;53.806;11.598;2024-01-30T13:53:22;9.30;88.10
4406;DHT22;2216;53.806;11.598;2024-01-30T13:55:48;9.30;88.10
4406;DHT22;2216;53.806;11.598;2024-01-30T13:58:14;9.30;88.00
4406;DHT22;2216;53.806;11.598;2024-01-30T14:00:40;9.30;88.00
4406;DHT22;2216;53.806;11.598;2024-01-30T14:03:05;9.30;88.00
4406;DHT22;2216;53.806;11.598;2024-01-30T14:05:32;9.30;88.00
4406;DHT22;2216;53.806;11.598;2024-01-30T14:07:58;9.30;88.00
4406;DHT22;2216;53.806;11.598;2024-01-30T14:10:25;9.30;88.10
4406;DHT22;2216;53.806;11.598;2024-01-30T14:12:51;9.30;88.10
4406;DHT22;2216;53.806;11.598;2024-01-30T14:15:16;9.30;88.10
4406;DHT22;2216;53.806;11.598;2024-01-30T14:17:45;9.30;88.20
4406;DHT22;2216;53.806;11.598;2024-01-30T14:20:14;9.30;88.20
4406;DHT22;2216;53.806;11.598;2024-01-30T14:22:42;9.30;88.20
4406;DHT22;2216;53.806;11.598;2024-01-30T14:25:08;9.30;88.20
4406;DHT22;2216;53.806;11.598;2024-01-30T14:27:35;9.30;88.20
4406;DHT22;2216;53.806;11.598;2024-01-30T14:30:01;9.30;88.20
4406;DHT22;2216;53.806;11.598;2024-01-30T14:32:28;9.30;88.30
4406;DHT22;2216;53.806;11.598;2024-01-30T14:34:54;9.30;88.20
4406;DHT22;2216;53.806;11.598;2024-01-30T14:37:20;9.30;88.20
4406;DHT22;2216;53.806;11.598;2024-01-30T14:39:47;9.30;88.20
4406;DHT22;2216;53.806;11.598;2024-01-30T14:42:16;9.30;88.20
4406;DHT22;2216;53.806;11.598;2024-01-30T14:44:42;9.20;88.10
4406;DHT22;2216;53.806;11.598;2024-01-30T14:47:08;9.30;88.10
4406;DHT22;2216;53.806;11.598;2024-01-30T14:49:34;9.30;88.10
4406;DHT22;2216;53.806;11.598;2024-01-30T14:51:59;9.30;88.10
4406;DHT22;2216;53.806;11.598;2024-01-30T14:54:26;9.30;88.10
4406;DHT22;2216;53.806;11.598;2024-01-30T14:56:53;9.30;88.10
4406;DHT22;2216;53.806;11.598;2024-01-30T14:59:19;9.30;88.80
4406;DHT22;2216;53.806;11.598;2024-01-30T15:01:45;9.30;88.20
4406;DHT22;2216;53.806;11.598;2024-01-30T15:04:11;9.30;88.10
4406;DHT22;2216;53.806;11.598;2024-01-30T15:06:37;9.20;88.10
4406;DHT22;2216;53.806;11.598;2024-01-30T15:09:03;9.30;88.10
4406;DHT22;2216;53.806;11.598;2024-01-30T15:11:29;9.20;88.80
4406;DHT22;2216;53.806;11.598;2024-01-30T15:13:56;9.20;88.10
4406;DHT22;2216;53.806;11.598;2024-01-30T15:16:21;9.30;88.40
4406;DHT22;2216;53.806;11.598;2024-01-30T15:18:47;9.30;88.20
4406;DHT22;2216;53.806;11.598;2024-01-30T15:21:13;9.20;88.10
4406;DHT22;2216;53.806;11.598;2024-01-30T15:23:39;9.30;88.20
4406;DHT22;2216;53.806;11.598;2024-01-30T15:26:04;9.30;88.20
4406;DHT22;2216;53.806;11.598;2024-01-30T15:28:38;9.20;88.30
4406;DHT22;2216;53.806;11.598;2024-01-30T15:31:05;9.30;88.20
4406;DHT22;2216;53.806;11.598;2024-01-30T15:33:31;9.30;88.30
4406;DHT22;2216;53.806;11.598;2024-01-30T15:36:01;9.20;88.20
4406;DHT22;2216;53.806;11.598;2024-01-30T15:38:27;9.30;88.20
4406;DHT22;2216;53.806;11.598;2024-01-30T15:40:54;9.20;88.20
4406;DHT22;2216;53.806;11.598;2024-01-30T15:43:20;9.30;88.30
4406;DHT22;2216;53.806;11.598;2024-01-30T15:45:47;9.30;88.30
4406;DHT22;2216;53.806;11.598;2024-01-30T15:48:13;9.20;88.20
4406;DHT22;2216;53.806;11.598;2024-01-30T15:50:39;9.30;88.30
4406;DHT22;2216;53.806;11.598;2024-01-30T15:53:05;9.30;88.30
4406;DHT22;2216;53.806;11.598;2024-01-30T15:55:31;9.30;88.30
4406;DHT22;2216;53.806;11.598;2024-01-30T15:57:56;9.30;88.30